Time;durP1;ratioP1;P1;durP2;ratioP2;P2;SDS_P1;SDS_P2;PMS_P1;PMS_P2;Temp;Humidity;BMP_temperature;BMP_pressure;BME280_temperature;BME280_humidity;BME280_pressure;Samples;Min_cycle;Max_cycle;Signal;HPM_P1;HPM_P2
2022/01/06 00:01:07;;;;;;;8.82;2.90;;;4.30;99.90;;;4.19;73.38;99862.88;5014732;28;20232;-69
2022/01/06 00:03:38;;;;;;;6.93;3.00;;;4.30;99.90;;;4.11;73.34;99861.13;5014920;28;20209;-69
2022/01/06 00:06:08;;;;;;;6.32;2.38;;;4.20;99.90;;;4.19;72.91;99878.94;5013862;28;20269;-69
2022/01/06 00:08:38;;;;;;;14.90;2.88;;;4.20;99.90;;;4.21;73.06;99871.56;5014731;28;20177;-71
2022/01/06 00:11:10;;;;;;;6.25;2.42;;;4.20;99.90;;;4.24;73.33;99885.41;5014543;28;20580;-72
2022/01/06 00:13:50;;;;;;;14.18;4.10;;;4.20;99.90;;;4.15;73.39;99888.38;5013194;28;20244;-70
2022/01/06 00:16:30;;;;;;;5.32;2.22;;;4.20;99.90;;;4.12;73.37;99889.53;5014593;28;20240;-71
2022/01/06 00:24:32;;;;;;;5.85;2.63;;;4.10;99.90;;;4.22;73.28;99899.97;5014415;28;20228;-70
2022/01/06 00:27:00;;;;;;;8.50;3.83;;;4.20;99.90;;;4.23;73.70;99904.31;5014611;28;20241;-71
2022/01/06 00:29:29;;;;;;;12.57;4.88;;;4.20;99.90;;;4.27;73.35;99900.25;5014732;28;20535;-71
2022/01/06 00:31:57;;;;;;;5.82;2.85;;;4.20;99.90;;;4.36;72.63;99896.47;5014684;28;20232;-70
2022/01/06 00:34:27;;;;;;;5.65;2.80;;;4.30;99.90;;;4.31;73.56;99912.25;5015409;28;20717;-69
2022/01/06 00:36:55;;;;;;;7.43;2.20;;;4.30;99.90;;;4.06;74.74;99924.28;5014723;28;20190;-71
2022/01/06 00:39:27;;;;;;;5.35;2.85;;;4.10;99.90;;;3.73;76.29;99929.94;5014366;28;20182;-72
2022/01/06 00:41:58;;;;;;;4.57;3.10;;;3.90;99.90;;;3.51;77.34;99936.16;5013632;28;20186;-70
2022/01/06 00:44:26;;;;;;;3.47;2.15;;;3.70;1.00;;;3.11;78.59;99955.16;5014282;28;20309;-69
2022/01/06 00:46:55;;;;;;;5.70;2.78;;;3.30;1.00;;;2.87;79.83;99946.28;5015001;28;20236;-71
2022/01/06 00:49:23;;;;;;;3.42;2.10;;;3.10;99.90;;;2.71;80.27;99957.06;5015180;28;20175;-70
2022/01/06 00:51:53;;;;;;;3.65;2.50;;;2.90;1.00;;;2.59;80.65;99964.63;5014885;28;20310;-70
2022/01/06 00:54:22;;;;;;;7.15;2.65;;;2.70;99.90;;;2.51;81.03;99951.31;5015140;28;20213;-70
2022/01/06 00:56:50;;;;;;;7.00;3.85;;;2.60;99.90;;;2.58;81.62;99962.13;5015787;28;20562;-71
2022/01/06 00:59:19;;;;;;;7.15;3.95;;;2.70;99.90;;;2.56;79.88;99981.03;5014615;28;20213;-70
2022/01/06 01:01:47;;;;;;;3.28;2.10;;;2.60;1.00;;;2.56;79.07;99986.38;5014379;28;20186;-70
2022/01/06 01:04:18;;;;;;;3.22;1.98;;;2.60;99.90;;;2.56;74.87;99985.53;5014484;28;20583;-71
2022/01/06 01:06:47;;;;;;;3.00;2.00;;;2.60;1.00;;;2.51;73.36;100010.09;5016825;28;20181;-70
2022/01/06 01:09:17;;;;;;;3.55;1.60;;;2.60;99.90;;;2.45;71.72;100009.91;5017939;28;20174;-71
2022/01/06 01:11:45;;;;;;;2.15;1.92;;;2.50;99.90;;;2.36;71.53;100010.97;5017674;28;20244;-72
2022/01/06 01:14:19;;;;;;;5.57;1.65;;;2.40;99.90;;;2.26;71.53;100020.97;5018697;28;20220;-71
2022/01/06 01:16:54;;;;;;;4.72;2.20;;;2.40;99.90;;;2.19;71.01;100027.00;5013104;28;20244;-71
2022/01/06 01:19:24;;;;;;;3.15;1.30;;;2.30;99.90;;;2.13;70.00;100042.88;5014135;28;20190;-70
2022/01/06 01:21:54;;;;;;;3.15;2.10;;;2.20;99.90;;;2.07;69.65;100038.19;5014052;28;20171;-70
2022/01/06 01:24:24;;;;;;;4.70;2.03;;;2.20;99.90;;;1.99;69.65;100049.69;5025784;22;20232;-66
2022/01/06 01:26:53;;;;;;;4.43;1.85;;;2.10;99.90;;;1.89;69.94;100043.69;5011435;28;20191;-69
2022/01/06 01:29:22;;;;;;;14.40;2.90;;;2.00;99.90;;;1.87;69.88;100043.03;5012035;28;20793;-69
2022/01/06 01:31:52;;;;;;;7.53;2.30;;;2.00;99.90;;;1.73;70.54;100052.53;5011958;28;20570;-71
2022/01/06 01:34:25;;;;;;;5.18;1.95;;;1.90;99.90;;;1.75;69.62;100060.34;5012177;28;20292;-69
2022/01/06 01:36:55;;;;;;;5.97;2.20;;;1.90;99.90;;;1.75;69.34;100063.03;5011897;28;20244;-70
2022/01/06 01:39:27;;;;;;;4.57;1.45;;;1.80;99.90;;;1.75;68.62;100063.88;5012253;28;20656;-68
2022/01/06 01:41:55;;;;;;;6.03;1.52;;;1.80;99.90;;;1.80;68.66;100067.88;5012189;28;20634;-68
2022/01/06 01:44:24;;;;;;;3.50;1.67;;;1.90;99.90;;;1.87;68.63;100072.38;5011896;28;20213;-68
2022/01/06 01:47:01;;;;;;;6.47;1.60;;;1.90;99.90;;;1.97;68.18;100074.91;5011836;28;20181;-69
2022/01/06 01:49:44;;;;;;;7.35;2.30;;;2.00;99.90;;;2.00;67.97;100080.72;5012166;28;20674;-70
2022/01/06 01:52:12;;;;;;;7.00;1.60;;;2.00;99.90;;;2.02;68.07;100089.41;5011847;28;20260;-69
2022/01/06 01:54:42;;;;;;;4.15;2.08;;;2.10;99.90;;;2.04;67.78;100084.72;5016273;28;20245;-69
2022/01/06 01:57:10;;;;;;;7.30;2.10;;;2.10;99.90;;;2.08;67.37;100094.06;5016190;28;20589;-68
2022/01/06 01:59:39;;;;;;;2.38;1.42;;;2.10;99.90;;;2.09;67.26;100090.38;5016450;28;20186;-69
2022/01/06 02:02:08;;;;;;;6.93;2.55;;;2.10;99.90;;;2.16;67.44;100095.91;5015111;28;20200;-69
2022/01/06 02:04:36;;;;;;;5.50;2.45;;;2.20;99.90;;;2.14;67.20;100103.22;5016128;28;20217;-70
2022/01/06 02:07:05;;;;;;;4.10;1.50;;;2.20;99.90;;;2.17;67.61;100098.41;5015364;28;20663;-68
2022/01/06 02:09:33;;;;;;;2.58;1.60;;;2.20;99.90;;;2.32;67.52;100100.41;5015609;28;20265;-69
2022/01/06 02:12:05;;;;;;;2.65;1.70;;;2.30;99.90;;;2.33;67.98;100102.06;5015379;28;20256;-69
2022/01/06 02:14:34;;;;;;;8.60;2.00;;;2.30;99.90;;;2.39;67.18;100106.72;5015247;28;20865;-69
2022/01/06 02:17:03;;;;;;;2.88;1.75;;;2.40;99.90;;;2.30;67.25;100113.91;5015631;28;20643;-69
2022/01/06 02:19:31;;;;;;;11.38;2.03;;;2.30;99.90;;;2.32;66.87;100114.59;5015950;28;20269;-70
2022/01/06 02:22:01;;;;;;;3.78;1.95;;;2.40;99.90;;;2.28;66.77;100115.06;5016214;28;20197;-70
2022/01/06 02:24:30;;;;;;;4.32;1.80;;;2.40;99.90;;;2.25;66.88;100131.44;5014904;28;20213;-69
2022/01/06 02:26:58;;;;;;;4.57;1.83;;;2.30;99.90;;;2.31;67.13;100146.78;5015048;28;20190;-69
2022/01/06 02:29:26;;;;;;;4.75;2.38;;;2.30;99.90;;;2.29;66.86;100138.09;5015469;28;20639;-70
2022/01/06 02:31:54;;;;;;;3.65;1.70;;;2.30;99.90;;;2.29;66.62;100143.44;5015051;28;20201;-69
2022/01/06 02:34:23;;;;;;;3.72;1.60;;;2.30;99.90;;;2.31;66.50;100168.16;5015252;28;20210;-69
2022/01/06 02:36:51;;;;;;;4.75;1.50;;;2.30;99.90;;;2.29;66.61;100162.13;5015114;28;20213;-70
2022/01/06 02:39:21;;;;;;;2.70;1.65;;;2.40;99.90;;;2.28;65.26;100171.13;5015273;28;20189;-69
2022/01/06 02:41:49;;;;;;;5.25;1.77;;;2.30;99.90;;;2.24;65.50;100169.78;5015309;28;20182;-69
2022/01/06 02:44:21;;;;;;;3.05;1.52;;;2.30;99.90;;;2.30;65.82;100182.50;5015099;28;20248;-69
2022/01/06 02:46:49;;;;;;;3.95;2.92;;;2.30;99.90;;;2.28;65.33;100195.16;5014952;28;20174;-70
2022/01/06 02:49:18;;;;;;;3.72;1.63;;;2.30;99.90;;;2.35;65.33;100190.84;5015430;28;20178;-71
2022/01/06 02:51:46;;;;;;;6.70;1.45;;;2.40;99.90;;;2.35;64.87;100204.19;5015007;28;20563;-69
2022/01/06 02:54:16;;;;;;;4.53;1.42;;;2.40;99.90;;;2.29;64.31;100202.16;5014767;28;20749;-69
2022/01/06 02:56:45;;;;;;;2.53;1.52;;;2.40;99.90;;;2.22;63.79;100212.69;5014979;28;20186;-70
2022/01/06 02:59:13;;;;;;;2.95;1.25;;;2.30;99.90;;;2.17;62.29;100223.88;5014846;28;20198;-70
2022/01/06 03:01:45;;;;;;;3.08;1.52;;;2.30;99.90;;;2.15;62.03;100209.84;5014870;28;20261;-70
2022/01/06 03:04:14;;;;;;;8.05;1.65;;;2.20;99.90;;;2.20;61.91;100220.03;5013645;28;20206;-69
2022/01/06 03:06:42;;;;;;;5.10;1.40;;;2.20;99.90;;;2.13;62.26;100216.34;5014669;28;20186;-70
2022/01/06 03:09:11;;;;;;;4.72;1.60;;;2.20;99.90;;;2.08;62.88;100232.81;5016814;28;20183;-70
2022/01/06 03:11:43;;;;;;;4.95;1.25;;;2.20;99.90;;;2.07;64.09;100246.34;5014623;28;20767;-70
2022/01/06 03:14:12;;;;;;;3.13;2.15;;;2.20;99.90;;;2.10;64.10;100241.53;5014447;28;20256;-70
2022/01/06 03:16:41;;;;;;;5.50;2.35;;;2.10;99.90;;;2.05;65.11;100243.00;5014686;28;20186;-70
2022/01/06 03:19:09;;;;;;;2.83;1.80;;;2.10;99.90;;;2.01;64.14;100261.19;5015288;28;20575;-68
2022/01/06 03:21:37;;;;;;;2.78;1.70;;;2.10;99.90;;;1.96;63.64;100270.66;5015429;28;20170;-69
2022/01/06 03:24:06;;;;;;;2.05;1.30;;;2.00;99.90;;;1.89;63.53;100275.81;5015345;28;20213;-68
2022/01/06 03:26:35;;;;;;;1.95;1.15;;;2.00;99.90;;;1.76;63.37;100288.78;5015096;28;20197;-69
2022/01/06 03:29:03;;;;;;;2.72;1.08;;;1.90;99.90;;;1.65;63.46;100297.03;5015215;28;20269;-70
2022/01/06 03:31:33;;;;;;;5.47;1.23;;;1.80;99.90;;;1.58;62.96;100294.19;5015442;28;20178;-69
2022/01/06 03:34:01;;;;;;;2.85;1.00;;;1.70;99.90;;;1.50;63.52;100302.13;5014984;28;20301;-69
2022/01/06 03:36:30;;;;;;;6.15;1.90;;;1.60;99.90;;;1.41;63.57;100315.56;5015011;28;20174;-69
2022/01/06 03:38:58;;;;;;;5.72;1.45;;;1.50;99.90;;;1.35;64.14;100319.72;5015338;28;20606;-69
2022/01/06 03:41:26;;;;;;;2.45;1.00;;;1.50;99.90;;;1.26;64.31;100321.47;5015493;28;20181;-69
2022/01/06 03:43:54;;;;;;;4.78;1.30;;;1.40;99.90;;;1.19;64.22;100336.44;5015991;28;20619;-69
2022/01/06 03:46:23;;;;;;;6.93;0.90;;;1.30;99.90;;;1.12;64.69;100334.53;5015382;28;20546;-69
2022/01/06 03:48:53;;;;;;;4.40;1.30;;;1.30;99.90;;;1.06;65.01;100341.34;5015275;28;20185;-69
2022/01/06 03:51:23;;;;;;;6.97;1.63;;;1.20;99.90;;;1.01;64.56;100348.97;5014088;28;20189;-68
2022/01/06 03:53:52;;;;;;;1.52;1.30;;;1.10;99.90;;;0.94;65.35;100357.72;5014096;28;20267;-68
2022/01/06 03:56:20;;;;;;;2.55;1.52;;;1.10;99.90;;;0.86;65.87;100361.16;5014092;28;20205;-69
2022/01/06 03:58:49;;;;;;;2.53;1.65;;;1.00;99.90;;;0.86;65.38;100366.47;5013987;28;20190;-69
2022/01/06 04:01:18;;;;;;;4.13;1.13;;;1.00;99.90;;;0.84;65.32;100368.44;5014344;28;20218;-69
2022/01/06 04:03:47;;;;;;;4.28;1.45;;;1.00;99.90;;;0.78;65.80;100379.69;5013719;28;20202;-67
2022/01/06 04:06:17;;;;;;;4.40;1.00;;;0.90;99.90;;;0.76;65.53;100395.84;5013899;28;20185;-69
2022/01/06 04:08:46;;;;;;;2.03;0.93;;;0.90;99.90;;;0.70;65.94;100392.94;5014358;28;20178;-68
2022/01/06 04:11:14;;;;;;;2.40;1.67;;;0.80;99.90;;;0.68;65.63;100397.56;5013969;28;20666;-70
2022/01/06 04:13:43;;;;;;;2.33;1.02;;;0.80;99.90;;;0.64;65.20;100410.34;5013668;28;20225;-70
2022/01/06 04:16:14;;;;;;;6.43;1.65;;;0.80;99.90;;;0.63;64.84;100418.53;5013518;28;20194;-68
2022/01/06 04:18:43;;;;;;;2.50;1.05;;;0.70;99.90;;;0.58;65.01;100415.47;5014581;28;20202;-69
2022/01/06 04:21:11;;;;;;;3.45;1.45;;;0.70;99.90;;;0.53;64.86;100417.72;5013981;28;20198;-69
2022/01/06 04:23:41;;;;;;;7.20;1.35;;;0.70;99.90;;;0.48;64.90;100425.34;5012760;28;20239;-70
2022/01/06 04:26:10;;;;;;;4.20;1.35;;;0.60;99.90;;;0.40;65.51;100429.56;5013029;28;20281;-69
2022/01/06 04:28:38;;;;;;;2.03;1.00;;;0.60;99.90;;;0.34;65.38;100437.28;5013369;28;20244;-68
2022/01/06 04:31:09;;;;;;;3.40;1.33;;;0.50;99.90;;;0.48;64.56;100441.31;5013879;28;20589;-69
2022/01/06 04:33:38;;;;;;;1.65;1.05;;;0.50;99.90;;;0.38;63.96;100447.53;5013402;28;20209;-70
2022/01/06 04:36:07;;;;;;;6.75;1.63;;;0.50;99.90;;;0.36;63.70;100454.81;5013572;28;20187;-69
2022/01/06 04:38:36;;;;;;;4.35;1.10;;;0.50;99.90;;;0.36;64.10;100459.28;5013418;28;20201;-70
2022/01/06 04:41:08;;;;;;;1.85;0.75;;;0.50;99.90;;;0.28;63.94;100464.50;5013059;28;20269;-68
2022/01/06 04:43:37;;;;;;;5.00;1.23;;;0.40;99.90;;;0.30;63.34;100460.69;5013398;28;20261;-69
2022/01/06 04:46:05;;;;;;;2.08;0.90;;;0.40;99.90;;;0.29;63.30;100468.84;5013697;28;20174;-69
2022/01/06 04:48:35;;;;;;;3.38;1.10;;;0.40;99.90;;;0.23;63.54;100469.44;5013601;28;20224;-69
2022/01/06 04:51:03;;;;;;;3.95;1.35;;;0.40;99.90;;;0.25;63.39;100472.75;5013398;28;20201;-70
2022/01/06 04:53:32;;;;;;;1.35;0.98;;;0.40;99.90;;;0.23;63.23;100480.06;5013329;28;20703;-68
2022/01/06 04:56:00;;;;;;;8.55;1.05;;;0.30;99.90;;;0.17;63.77;100480.66;5013066;28;20665;-67
2022/01/06 04:58:32;;;;;;;4.47;1.27;;;0.30;99.90;;;0.19;63.92;100479.53;5013447;28;20178;-69
2022/01/06 05:01:00;;;;;;;4.70;1.20;;;0.30;99.90;;;0.12;64.12;100481.09;5012647;28;20665;-68
2022/01/06 05:03:29;;;;;;;4.18;1.05;;;0.30;99.90;;;0.05;64.38;100485.28;5012792;28;20203;-70
2022/01/06 05:05:57;;;;;;;4.90;1.40;;;0.20;99.90;;;0.10;64.59;100487.56;5012743;28;20605;-69
2022/01/06 05:08:26;;;;;;;4.70;1.15;;;0.20;99.90;;;0.02;64.65;100493.56;5012689;28;20257;-69
2022/01/06 05:10:54;;;;;;;4.80;2.55;;;0.20;99.90;;;0.07;64.96;100495.81;5013585;28;20178;-70
2022/01/06 05:13:23;;;;;;;4.25;1.60;;;0.20;99.90;;;0.07;65.05;100507.28;5014404;28;20210;-67
2022/01/06 05:15:55;;;;;;;5.50;1.60;;;0.20;99.90;;;-0.03;65.49;100501.16;5013027;28;20174;-69
2022/01/06 05:18:23;;;;;;;2.72;1.45;;;0.20;99.90;;;0.00;65.26;100503.53;5013567;28;20537;-68
2022/01/06 05:20:51;;;;;;;4.60;1.92;;;0.10;99.90;;;-0.03;64.97;100509.13;5013145;28;20528;-71
2022/01/06 05:23:20;;;;;;;2.05;1.25;;;0.10;99.90;;;-0.04;65.15;100510.09;5012467;28;20217;-69
2022/01/06 05:25:48;;;;;;;2.85;1.20;;;0.10;99.90;;;-0.05;65.60;100509.25;5012234;28;20183;-67
2022/01/06 05:28:16;;;;;;;6.13;1.35;;;0.10;99.90;;;-0.05;66.08;100519.09;5011896;28;20202;-67
2022/01/06 05:30:46;;;;;;;6.45;1.55;;;0.10;99.90;;;-0.08;65.83;100514.88;5012308;28;20782;-68
2022/01/06 05:33:16;;;;;;;3.10;1.10;;;0.10;99.90;;;-0.07;65.83;100518.38;5012173;28;20221;-70
2022/01/06 05:35:44;;;;;;;3.65;1.27;;;0.00;99.90;;;-0.11;66.27;100531.13;5012374;28;20558;-68
2022/01/06 05:38:14;;;;;;;2.38;1.25;;;0.00;99.90;;;-0.12;66.18;100528.59;5012353;28;20178;-69
2022/01/06 05:40:42;;;;;;;3.28;1.13;;;0.00;99.90;;;-0.11;66.86;100544.44;5012176;28;20178;-67
2022/01/06 05:43:12;;;;;;;3.03;1.25;;;0.00;99.90;;;-0.10;66.89;100547.94;5012020;28;20681;-69
2022/01/06 05:45:40;;;;;;;2.22;1.08;;;0.00;99.90;;;-0.10;67.29;100547.94;5011929;28;20639;-69
2022/01/06 05:48:09;;;;;;;5.57;1.05;;;0.00;99.90;;;-0.10;67.49;100564.72;5012174;28;20277;-69
2022/01/06 05:50:38;;;;;;;3.83;1.25;;;0.00;99.90;;;-0.18;67.69;100567.25;5012104;28;20674;-68
2022/01/06 05:53:07;;;;;;;4.05;1.38;;;0.00;99.90;;;-0.20;68.14;100576.34;5011840;28;20213;-69
2022/01/06 05:55:35;;;;;;;6.07;1.35;;;0.00;99.90;;;-0.17;68.46;100578.72;5011352;28;20170;-68
2022/01/06 05:58:03;;;;;;;2.38;1.45;;;0.00;99.90;;;-0.17;68.47;100590.22;5012003;28;20233;-70
2022/01/06 06:00:32;;;;;;;6.00;1.33;;;0.00;99.90;;;-0.24;68.60;100599.72;5011929;28;20198;-69
2022/01/06 06:03:00;;;;;;;3.20;1.02;;;-0.10;99.90;;;-0.30;69.02;100607.44;5011680;28;20224;-69
2022/01/06 06:05:29;;;;;;;2.58;1.10;;;-0.10;99.90;;;-0.28;69.16;100613.44;5012001;28;20179;-71
2022/01/06 06:07:58;;;;;;;2.58;1.10;;;-0.10;99.90;;;-0.23;69.21;100611.19;5012135;28;20273;-69
2022/01/06 06:10:27;;;;;;;2.75;2.30;;;-0.10;99.90;;;-0.26;69.40;100611.47;5012168;28;20175;-68
2022/01/06 06:12:55;;;;;;;9.98;2.03;;;-0.10;99.90;;;-0.35;70.00;100622.97;5011961;28;20237;-70
2022/01/06 06:15:24;;;;;;;8.32;2.50;;;-0.20;99.90;;;-0.38;70.30;100637.34;5011971;28;20198;-70
2022/01/06 06:17:52;;;;;;;3.55;1.42;;;-0.20;99.90;;;-0.35;70.09;100633.59;5011972;28;20190;-68
2022/01/06 06:20:20;;;;;;;2.55;1.40;;;-0.20;99.90;;;-0.43;70.31;100643.09;5011999;28;20252;-69
2022/01/06 06:22:49;;;;;;;4.03;2.05;;;-0.20;99.90;;;-0.49;70.54;100642.81;5012467;28;20178;-69
2022/01/06 06:25:18;;;;;;;5.88;1.45;;;-0.30;99.90;;;-0.51;70.63;100642.94;5012244;28;20666;-70
2022/01/06 06:27:47;;;;;;;2.83;1.25;;;-0.30;99.90;;;-0.48;70.97;100650.63;5011769;28;20240;-70
2022/01/06 06:30:15;;;;;;;2.83;1.33;;;-0.30;99.90;;;-0.55;71.36;100648.66;5011914;28;20194;-69
2022/01/06 06:32:43;;;;;;;4.38;1.75;;;-0.40;99.90;;;-0.51;72.06;100656.22;5011888;28;20198;-70
2022/01/06 06:35:12;;;;;;;3.90;1.10;;;-0.30;99.90;;;-0.56;72.02;100666.44;5012163;28;20218;-70
2022/01/06 06:37:40;;;;;;;4.10;1.45;;;-0.40;99.90;;;-0.67;72.05;100674.50;5011916;28;20190;-70
2022/01/06 06:40:11;;;;;;;5.85;1.98;;;-0.40;99.90;;;-0.66;72.77;100673.53;5014851;28;20174;-69
2022/01/06 06:42:41;;;;;;;2.10;1.63;;;-0.50;99.90;;;-0.63;72.96;100667.94;5015756;28;20236;-70
2022/01/06 06:45:11;;;;;;;5.63;1.40;;;-0.50;99.90;;;-0.63;73.59;100672.44;5015766;28;20217;-67
2022/01/06 06:47:39;;;;;;;4.30;1.52;;;-0.50;99.90;;;-0.59;73.92;100679.16;5015564;28;20178;-70
2022/01/06 06:50:09;;;;;;;3.22;2.03;;;-0.50;99.90;;;-0.62;73.85;100682.06;5015099;28;20190;-68
2022/01/06 06:52:40;;;;;;;2.85;1.70;;;-0.40;99.90;;;-0.64;74.86;100687.53;5015522;28;20290;-70
2022/01/06 06:55:09;;;;;;;4.13;1.25;;;-0.50;99.90;;;-0.62;74.33;100700.66;4997731;28;20237;-69
2022/01/06 06:57:37;;;;;;;3.05;1.30;;;-0.50;99.90;;;-0.57;74.68;100701.09;5016035;28;20193;-70
2022/01/06 07:00:11;;;;;;;3.58;1.98;;;-0.40;99.90;;;-0.53;74.80;100716.66;5015969;28;20522;-69
2022/01/06 07:02:39;;;;;;;2.83;1.67;;;-0.40;99.90;;;-0.53;74.67;100714.00;5016301;28;20197;-69
2022/01/06 07:05:09;;;;;;;2.97;1.60;;;-0.40;99.90;;;-0.44;74.88;100728.31;5012856;28;20264;-70
2022/01/06 07:07:38;;;;;;;3.92;1.45;;;-0.30;99.90;;;-0.44;75.28;100726.47;5015496;28;20197;-69
2022/01/06 07:10:08;;;;;;;5.68;2.10;;;-0.30;99.90;;;-0.40;75.22;100732.38;5015154;28;20658;-69
2022/01/06 07:12:39;;;;;;;4.20;1.83;;;-0.30;99.90;;;-0.40;74.69;100732.38;5015122;28;20740;-70
2022/01/06 07:15:12;;;;;;;5.80;1.83;;;-0.30;99.90;;;-0.43;75.55;100737.94;5014412;28;20272;-67
2022/01/06 07:17:40;;;;;;;6.15;2.20;;;-0.30;99.90;;;-0.47;75.16;100747.16;5015788;28;20186;-68
2022/01/06 07:20:11;;;;;;;11.25;2.05;;;-0.30;99.90;;;-0.42;75.74;100758.25;5015260;28;20182;-68
2022/01/06 07:22:39;;;;;;;3.40;2.30;;;-0.30;99.90;;;-0.40;75.80;100755.47;5015271;28;20189;-67
2022/01/06 07:25:09;;;;;;;9.20;2.38;;;-0.30;99.90;;;-0.41;75.35;100764.41;5022032;23;20230;-72
2022/01/06 07:27:37;;;;;;;4.22;1.88;;;-0.30;99.90;;;-0.41;76.00;100773.22;5015340;28;20194;-71
2022/01/06 07:30:07;;;;;;;7.53;3.33;;;-0.30;99.90;;;-0.44;75.69;100769.00;5015672;28;20190;-71
2022/01/06 07:32:45;;;;;;;8.55;2.28;;;-0.30;99.90;;;-0.37;76.14;100768.47;5014614;28;20264;-71
2022/01/06 07:35:13;;;;;;;2.50;1.83;;;-0.20;1.00;;;-0.36;75.70;100775.47;5020862;28;20213;-70
2022/01/06 07:37:42;;;;;;;5.15;1.83;;;-0.20;99.90;;;-0.32;75.77;100779.53;5015433;28;20273;-70
2022/01/06 07:40:18;;;;;;;3.40;2.13;;;-0.20;1.00;;;-0.35;75.79;100790.47;5016113;28;20628;-70
2022/01/06 07:42:47;;;;;;;3.90;2.03;;;-0.20;1.00;;;-0.40;76.23;100790.03;5015627;28;20257;-70
2022/01/06 07:45:18;;;;;;;2.90;1.50;;;-0.20;1.00;;;-0.31;75.75;100798.03;5016270;28;20705;-69
2022/01/06 07:48:00;;;;;;;2.50;1.60;;;-0.20;1.00;;;-0.27;75.68;100801.25;5004595;28;20201;-71
2022/01/06 07:50:32;;;;;;;8.82;3.25;;;-0.20;1.00;;;-0.24;76.06;100812.44;4995900;28;20188;-71
2022/01/06 07:53:01;;;;;;;5.50;3.83;;;-0.20;1.00;;;-0.20;75.61;100813.88;4978698;28;20226;-71
2022/01/06 07:55:30;;;;;;;5.22;2.03;;;-0.10;1.00;;;-0.19;75.96;100825.34;4996269;28;20242;-69
2022/01/06 07:57:58;;;;;;;3.47;1.92;;;-0.10;1.00;;;-0.12;75.38;100837.13;4992163;28;20188;-71
2022/01/06 08:00:27;;;;;;;3.80;2.10;;;0.00;1.00;;;-0.22;76.34;100826.47;4976194;28;20187;-69
2022/01/06 08:03:00;;;;;;;13.48;2.92;;;0.00;1.00;;;0.02;75.41;100831.44;4989134;28;20796;-70
2022/01/06 08:05:29;;;;;;;5.03;1.92;;;0.10;1.00;;;0.02;75.37;100836.75;4994217;28;20265;-69
2022/01/06 08:07:58;;;;;;;4.35;1.60;;;0.10;99.90;;;0.01;75.52;100837.72;4995451;28;20257;-69
2022/01/06 08:10:26;;;;;;;3.58;1.65;;;0.10;99.90;;;0.21;75.12;100838.63;4995951;28;20198;-71
2022/01/06 08:12:55;;;;;;;4.15;2.22;;;0.20;99.90;;;0.12;74.67;100840.28;4995871;28;20195;-72
2022/01/06 08:15:23;;;;;;;10.00;6.30;;;0.20;99.90;;;0.19;74.51;100851.25;4995328;28;20223;-71
2022/01/06 08:17:52;;;;;;;5.20;3.78;;;0.30;99.90;;;0.21;74.22;100860.75;4995545;28;20198;-71
2022/01/06 08:20:22;;;;;;;11.57;3.30;;;0.30;99.90;;;0.28;74.93;100861.91;4996588;28;20206;-69
2022/01/06 08:22:50;;;;;;;8.10;2.80;;;0.40;99.90;;;0.40;74.33;100871.44;4996776;28;20591;-69
2022/01/06 08:25:18;;;;;;;5.68;2.00;;;0.40;99.90;;;0.46;73.55;100872.72;4996348;28;20226;-72
2022/01/06 08:27:47;;;;;;;4.55;2.28;;;0.50;99.90;;;0.49;73.63;100874.25;4996313;28;20218;-70
2022/01/06 08:30:15;;;;;;;3.55;1.98;;;0.50;99.90;;;0.48;73.47;100868.13;4995950;28;20191;-72
2022/01/06 08:32:44;;;;;;;3.65;2.35;;;0.60;99.90;;;0.62;73.27;100875.69;4995299;28;20191;-71
2022/01/06 08:35:12;;;;;;;3.10;2.17;;;0.60;99.90;;;0.58;73.53;100868.13;4994615;28;20207;-69
2022/01/06 08:37:44;;;;;;;3.45;2.25;;;0.60;99.90;;;0.62;73.35;100875.69;5009763;28;20206;-72
2022/01/06 08:40:13;;;;;;;4.32;2.08;;;0.70;99.90;;;0.57;73.23;100891.25;4994564;28;20248;-71
2022/01/06 08:42:42;;;;;;;5.15;2.28;;;0.70;99.90;;;0.76;73.17;100882.44;4994634;28;20197;-70
2022/01/06 08:45:11;;;;;;;5.47;4.03;;;0.70;99.90;;;0.73;73.03;100894.19;4994110;28;20210;-69
2022/01/06 08:47:41;;;;;;;4.00;2.40;;;0.80;99.90;;;0.85;72.39;100909.06;4994130;28;20244;-72
2022/01/06 08:50:16;;;;;;;5.53;2.05;;;0.90;99.90;;;0.83;72.32;100902.19;4994606;28;20216;-70
2022/01/06 08:52:47;;;;;;;7.18;1.85;;;0.90;99.90;;;0.83;72.13;100904.84;4994802;28;20203;-70
2022/01/06 08:55:15;;;;;;;2.42;1.60;;;0.90;99.90;;;0.83;72.07;100899.53;4994906;28;20593;-71
2022/01/06 08:57:44;;;;;;;5.25;2.75;;;0.90;99.90;;;0.96;72.57;100907.25;4994643;28;20191;-72
2022/01/06 09:00:16;;;;;;;4.05;1.88;;;1.00;99.90;;;1.05;72.19;100909.94;4995078;28;20659;-70
2022/01/06 09:02:44;;;;;;;6.45;2.80;;;1.10;99.90;;;1.03;71.90;100908.38;4994070;28;20197;-71
2022/01/06 09:05:14;;;;;;;4.65;2.72;;;1.10;99.90;;;1.09;71.72;100916.66;4994383;28;20220;-70
2022/01/06 09:07:43;;;;;;;7.13;2.22;;;1.10;99.90;;;1.02;71.52;100930.66;4994846;28;20253;-72
2022/01/06 09:10:13;;;;;;;4.47;2.30;;;1.10;99.90;;;1.13;71.35;100931.38;4994830;28;20197;-73
2022/01/06 09:12:42;;;;;;;4.90;2.72;;;1.20;99.90;;;1.15;71.07;100926.75;4994978;28;20210;-72
2022/01/06 09:15:11;;;;;;;4.65;2.33;;;1.20;99.90;;;1.19;71.06;100937.97;4994676;28;20280;-71
2022/01/06 09:17:39;;;;;;;8.75;2.45;;;1.30;99.90;;;1.28;70.96;100945.97;4996415;28;20199;-70
2022/01/06 09:20:10;;;;;;;3.60;2.00;;;1.30;99.90;;;1.40;70.73;100945.81;5001030;28;20199;-71
2022/01/06 09:22:40;;;;;;;3.80;3.35;;;1.40;99.90;;;1.49;70.13;100966.31;5002906;28;20742;-71
2022/01/06 09:25:10;;;;;;;5.07;2.58;;;1.50;99.90;;;1.45;70.38;100971.09;4999421;28;20230;-69
2022/01/06 09:27:41;;;;;;;3.88;2.05;;;1.50;99.90;;;1.41;70.03;100974.16;4998979;28;20214;-71
2022/01/06 09:30:12;;;;;;;2.85;2.25;;;1.50;99.90;;;1.47;70.08;100976.25;4999772;28;20199;-71
2022/01/06 09:32:41;;;;;;;4.47;2.25;;;1.50;99.90;;;1.57;70.18;100980.59;4994336;28;20198;-71
2022/01/06 09:35:13;;;;;;;3.10;1.80;;;1.60;99.90;;;1.58;69.12;100982.28;4994184;28;20207;-70
2022/01/06 09:37:42;;;;;;;3.63;2.20;;;1.60;99.90;;;1.57;69.47;100980.59;4994291;28;20195;-71
2022/01/06 09:40:12;;;;;;;9.30;2.92;;;1.60;99.90;;;1.64;69.04;100991.56;4993388;28;20506;-70
2022/01/06 09:42:43;;;;;;;4.07;1.80;;;1.70;99.90;;;1.63;69.18;101000.53;4993418;28;20629;-70
2022/01/06 09:45:15;;;;;;;8.93;3.35;;;1.70;99.90;;;1.73;69.23;101001.38;4994324;28;20297;-69
2022/01/06 09:47:45;;;;;;;5.35;2.53;;;1.70;99.90;;;1.80;69.17;100996.28;5007500;28;20182;-70
2022/01/06 09:50:14;;;;;;;2.25;1.98;;;1.80;99.90;;;1.78;68.85;100990.25;5013863;28;20189;-71
2022/01/06 09:52:47;;;;;;;11.40;2.55;;;1.80;99.90;;;1.81;68.35;100996.16;5000956;28;20560;-69
2022/01/06 09:55:16;;;;;;;2.45;2.17;;;1.90;99.90;;;1.75;68.87;101004.72;4993920;28;20298;-68
2022/01/06 09:57:57;;;;;;;6.20;2.05;;;1.80;99.90;;;1.95;67.96;101011.72;4994101;28;20191;-69
2022/01/06 10:00:27;;;;;;;5.30;2.90;;;1.90;99.90;;;1.97;68.24;101007.09;4995040;28;20178;-69
2022/01/06 10:03:00;;;;;;;7.70;2.85;;;2.00;99.90;;;1.92;67.98;101017.34;4994784;28;20191;-69
2022/01/06 10:05:40;;;;;;;6.82;2.80;;;2.00;99.90;;;2.01;67.91;101011.13;5014456;28;20252;-69
2022/01/06 10:08:12;;;;;;;3.70;2.50;;;2.00;99.90;;;2.13;67.27;101023.31;4998141;28;20187;-70
2022/01/06 10:10:42;;;;;;;3.88;1.55;;;2.10;99.90;;;2.10;66.67;101023.63;4995731;28;20205;-69
2022/01/06 10:13:16;;;;;;;4.55;2.00;;;2.10;99.90;;;2.16;67.01;101017.72;4996134;28;20187;-70
2022/01/06 10:15:46;;;;;;;7.72;1.77;;;2.20;99.90;;;2.27;66.39;101029.22;4991368;28;20242;-71
2022/01/06 10:18:17;;;;;;;2.25;1.70;;;2.30;99.90;;;2.30;65.95;101034.25;5020757;28;20205;-71
2022/01/06 10:20:48;;;;;;;3.95;2.08;;;2.30;99.90;;;2.35;65.97;101032.81;5024915;28;20193;-70
2022/01/06 10:23:17;;;;;;;13.57;3.10;;;2.40;99.90;;;2.42;65.69;101030.44;5027658;28;20229;-71
2022/01/06 10:25:49;;;;;;;10.10;2.75;;;2.40;99.90;;;2.54;65.57;101034.56;5027859;28;20213;-70
2022/01/06 10:28:28;;;;;;;8.30;3.15;;;2.50;99.90;;;2.43;64.82;101038.28;5025856;28;20200;-71
2022/01/06 10:30:56;;;;;;;3.03;1.80;;;2.50;99.90;;;2.44;64.87;101039.97;5023569;28;20182;-70
2022/01/06 10:33:37;;;;;;;6.45;2.78;;;2.50;99.90;;;2.68;64.53;101055.47;5010168;28;20190;-71
2022/01/06 10:36:08;;;;;;;7.90;2.28;;;2.60;99.90;;;2.61;64.74;101046.38;5010502;28;20207;-69
2022/01/06 10:38:37;;;;;;;4.78;1.98;;;2.60;99.90;;;2.53;64.23;101054.25;5010555;28;20175;-68